Beverly Hills, CA

1:01 AM PST on March 03, 2015 (GMT -0800)
Los Angeles International | Change Station
CLOSE
Current Station
Airport
Location: Los Angeles,
Elevation: 105 ft
Nearby Weather Stations

Elev 105 ft 33.94 °N, 118.39 °W | Updated 8 minutes ago

Overcast
Overcast
52 °F
Feels Like 52 °F
N
4
Wind Variable Wind from NNE

Today
High -- | Low -- °F
--% Chance of Precip.
Yesterday
High -- | Low -- °F
Precip. -- in
6:19 AM 5:51 PM
Waxing Gibbous, 95% visible
Pressure 29.97 in
Visibility 9.0 miles
Clouds Few 2000 ft
Mostly Cloudy 4000 ft
Mostly Cloudy 5500 ft
Dew Point 46 °F
Humidity 80%
Rainfall 0.18 in
Snow Depth Not available.
UV 0 out of 12
Pollen 7.80 out of 12
Air Quality Not available.
Flu Activity Not available.
METAR KLAX 030853Z COR 03003KT 9SM FEW020 BKN040 BKN055 11/08 A2997 RMK AO2 RAE41 SLP147 P0009 60023 T01110078 58002

More Conditions Fewer Conditions

Pressure 29.97 in
Visibility 9.0 miles
Clouds Few 2000 ft
Mostly Cloudy 4000 ft
Mostly Cloudy 5500 ft
Dew Point 46 °F
Humidity 80%
Rainfall 0.18 in
Snow Depth Not available.
UV 0 out of 12
Pollen 7.80 out of 12
Air Quality Not available.
Flu Activity Not available.
METAR KLAX 030853Z COR 03003KT 9SM FEW020 BKN040 BKN055 11/08 A2997 RMK AO2 RAE41 SLP147 P0009 60023 T01110078 58002

More Conditions Fewer Conditions

10-Day Weather Forecast

Almanac

Astronomy

Mar. 03, 2015 Rise Set
Actual Time
Civil Twilight
Nautical Twilight
Astronomical Twilight
Moon
Length of Visible Light
Length of Day
Tomorrow will be .
, % of the Moon is Illuminated

Today's Extremes

State Highs State Lows

Community

WunderPhotos

Upload Photos

1,802,075 photos uploaded!

WunderBlogs® & News

Nearby

Air Quality

  Air Quality AQ Index Pollutant
Not available.

Snow Depth

Station Depth Elevation

Earthquake Activity

City Distance Mag. Time & Date
Minimum magnitude displayed is 2.5.

Coastal Water Temperatures

Place Temperature

Nearby Weather Stations